Time;durP1;ratioP1;P1;durP2;ratioP2;P2;SDS_P1;SDS_P2;PMS_P1;PMS_P2;Temp;Humidity;BMP_temperature;BMP_pressure;BME280_temperature;BME280_humidity;BME280_pressure;Samples;Min_cycle;Max_cycle;Signal;HPM_P1;HPM_P2
2021/03/22 04:20:55;;;;;;;11.80;3.67;;;;;;;3.89;75.96;99022.28;4047176;23;104311;-81
2021/03/22 04:23:24;;;;;;;14.37;3.63;;;;;;;4.04;75.80;99027.75;4794863;29;104632;-80
2021/03/22 04:25:51;;;;;;;14.80;3.60;;;;;;;4.07;75.42;99016.31;4794833;29;103225;-78
2021/03/22 04:28:18;;;;;;;13.07;4.37;;;;;;;4.03;75.61;99014.75;4788264;29;104939;-76
2021/03/22 04:30:45;;;;;;;15.17;4.07;;;;;;;3.98;75.17;99025.41;4785199;29;103714;-79
2021/03/22 04:33:12;;;;;;;11.00;3.40;;;;;;;4.06;75.48;99022.47;4788565;29;103575;-77
2021/03/22 04:35:39;;;;;;;18.53;4.13;;;;;;;4.10;74.90;99027.50;4792678;29;104385;-77
2021/03/22 04:38:07;;;;;;;12.93;4.07;;;;;;;4.17;75.58;99033.34;4798548;29;103976;-76
2021/03/22 04:40:34;;;;;;;16.60;4.90;;;;;;;4.07;75.94;99024.16;4794029;29;104522;-76
2021/03/22 04:43:01;;;;;;;13.67;3.30;;;;;;;4.04;77.01;99025.13;4788028;29;103882;-76
2021/03/22 04:45:30;;;;;;;18.47;4.37;;;;;;;4.07;76.78;99038.06;4780674;29;103301;-78
2021/03/22 04:47:58;;;;;;;12.40;3.57;;;;;;;4.09;77.86;99041.50;4784193;29;103937;-79
2021/03/22 04:50:27;;;;;;;15.93;3.90;;;;;;;4.10;78.32;99043.19;4812736;29;102927;-79
2021/03/22 04:52:55;;;;;;;17.90;4.90;;;;;;;4.07;78.45;99034.59;4809307;29;102581;-74
2021/03/22 04:55:24;;;;;;;20.30;5.00;;;;;;;4.04;79.12;99037.38;4791701;29;102653;-78
2021/03/22 04:57:52;;;;;;;16.77;5.03;;;;;;;4.03;78.80;99031.28;4800689;29;102779;-77
2021/03/22 05:00:22;;;;;;;24.57;5.53;;;;;;;4.04;77.74;99032.16;4793487;29;104722;-78
2021/03/22 05:02:49;;;;;;;15.10;4.63;;;;;;;4.05;76.88;99032.06;4802186;29;104113;-80
2021/03/22 05:05:18;;;;;;;16.17;4.43;;;;;;;4.09;77.19;99036.28;4806083;29;102829;-80
2021/03/22 05:07:45;;;;;;;18.50;4.37;;;;;;;3.92;75.30;99025.66;4807766;29;103311;-81
2021/03/22 05:10:18;;;;;;;10.30;3.43;;;;;;;3.95;74.55;99035.13;4800615;29;103020;-77
2021/03/22 05:12:46;;;;;;;10.87;3.20;;;;;;;4.03;74.91;99035.66;4796451;29;102623;-78
2021/03/22 05:15:15;;;;;;;11.63;3.03;;;;;;;3.86;74.75;99043.31;4793115;29;102983;-77
2021/03/22 05:17:43;;;;;;;11.83;3.87;;;;;;;3.96;74.56;99055.97;4799840;29;104309;-78
2021/03/22 05:20:12;;;;;;;11.73;3.30;;;;;;;3.94;73.50;99046.47;4798809;29;103815;-79
2021/03/22 05:22:39;;;;;;;16.47;3.77;;;;;;;3.90;74.36;99058.00;4796919;29;103083;-79
2021/03/22 05:25:08;;;;;;;12.53;3.63;;;;;;;3.86;74.13;99059.88;4798330;29;105193;-80
2021/03/22 05:27:35;;;;;;;11.53;3.37;;;;;;;3.92;74.07;99061.38;4785419;29;104997;-79
2021/03/22 05:30:15;;;;;;;14.70;4.00;;;;;;;3.96;73.95;99071.66;4796378;29;103739;-80
2021/03/22 05:32:43;;;;;;;12.57;3.60;;;;;;;3.94;74.03;99076.09;4798695;29;102577;-80
2021/03/22 05:35:15;;;;;;;16.93;3.83;;;;;;;3.89;74.17;99080.66;4791007;29;102725;-80
2021/03/22 05:37:42;;;;;;;13.53;3.87;;;;;;;4.04;73.62;99080.03;4789563;29;103402;-80
2021/03/22 05:40:13;;;;;;;17.07;4.53;;;;;;;3.92;74.38;99075.31;4779373;29;104491;-79
2021/03/22 05:42:55;;;;;;;15.67;3.90;;;;;;;3.95;74.50;99079.56;4792226;29;102958;-80
2021/03/22 05:46:03;;;;;;;14.87;4.07;;;;;;;3.86;74.80;99088.63;4795812;29;103466;-78
2021/03/22 05:48:46;;;;;;;16.03;3.87;;;;;;;3.83;75.58;99080.03;4770493;29;104453;-80
2021/03/22 05:51:29;;;;;;;12.00;3.97;;;;;;;3.83;75.05;99080.91;4794724;29;103843;-80
2021/03/22 05:54:03;;;;;;;12.47;4.73;;;;;;;3.94;75.15;99081.31;4798115;29;102610;-80
2021/03/22 05:56:39;;;;;;;16.47;4.57;;;;;;;3.91;75.20;99078.84;4799596;29;104345;-78
2021/03/22 05:59:17;;;;;;;10.43;3.33;;;;;;;3.99;75.31;99082.00;4794512;29;103980;-79
2021/03/22 06:01:47;;;;;;;9.23;2.93;;;;;;;4.13;75.02;99084.03;4796176;29;103312;-80
2021/03/22 06:04:25;;;;;;;9.23;2.50;;;;;;;4.23;75.33;99079.31;4799519;29;102921;-80
2021/03/22 06:06:52;;;;;;;15.27;4.00;;;;;;;4.17;76.23;99083.03;4794431;29;102966;-80
2021/03/22 06:09:29;;;;;;;18.60;5.20;;;;;;;4.20;76.30;99085.50;4797320;29;105285;-80
2021/03/22 06:12:05;;;;;;;15.93;3.70;;;;;;;4.15;77.12;99081.38;4795930;29;103436;-79
2021/03/22 06:14:39;;;;;;;17.97;4.40;;;;;;;4.22;76.79;99078.44;4798486;29;102565;-80
2021/03/22 06:17:15;;;;;;;16.10;4.20;;;;;;;4.24;77.27;99089.69;4780562;29;103266;-80
2021/03/22 06:20:06;;;;;;;14.23;4.57;;;;;;;4.12;78.56;99094.59;4784701;29;102970;-78
2021/03/22 06:22:34;;;;;;;18.00;4.90;;;;;;;4.14;78.06;99095.38;4806375;29;102679;-82
2021/03/22 06:25:15;;;;;;;18.87;5.03;;;;;;;4.02;78.97;99097.56;4952522;23;104458;-87
2021/03/22 06:27:50;;;;;;;12.00;4.47;;;;;;;4.08;79.05;99093.84;4804475;29;102523;-88
2021/03/22 06:30:20;;;;;;;16.63;4.73;;;;;;;4.13;78.31;99096.28;4795472;29;103087;-86
2021/03/22 06:32:51;;;;;;;11.00;3.47;;;;;;;4.16;79.14;99106.59;4807163;29;102901;-88
2021/03/22 06:35:23;;;;;;;18.60;4.93;;;;;;;4.12;78.50;99103.28;4802038;29;102455;-86
2021/03/22 06:37:51;;;;;;;16.83;4.67;;;;;;;4.12;78.72;99108.50;4813761;29;102604;-88
2021/03/22 06:40:30;;;;;;;16.17;4.80;;;;;;;4.24;79.88;99115.03;4812237;29;103897;-88
2021/03/22 06:43:11;;;;;;;19.00;4.23;;;;;;;4.38;79.02;99118.75;4806875;29;105734;-89
2021/03/22 06:45:41;;;;;;;12.73;4.23;;;;;;;4.43;78.38;99115.97;4793508;29;103226;-91
2021/03/22 06:48:25;;;;;;;17.37;4.90;;;;;;;4.27;79.35;99122.72;4801187;29;102479;-91
2021/03/22 06:51:15;;;;;;;19.83;5.27;;;;;;;4.10;80.51;99116.41;4815490;29;102368;-91
2021/03/22 06:53:44;;;;;;;15.37;4.23;;;;;;;4.39;79.64;99122.22;4810384;29;103102;-91
2021/03/22 06:56:20;;;;;;;17.60;5.10;;;;;;;4.34;79.91;99129.41;4809196;29;102096;-92
2021/03/22 06:58:48;;;;;;;16.43;4.73;;;;;;;4.22;78.77;99124.66;4811049;29;101818;-91
2021/03/22 07:01:24;;;;;;;13.80;4.57;;;;;;;4.16;79.26;99125.75;4810094;29;102900;-92
2021/03/22 07:03:53;;;;;;;19.37;5.20;;;;;;;4.25;79.11;99122.78;4810431;29;102206;-90
2021/03/22 07:06:22;;;;;;;18.13;5.60;;;;;;;4.28;78.08;99121.81;4811395;29;102087;-91
2021/03/22 07:08:50;;;;;;;21.03;5.10;;;;;;;4.39;78.20;99135.31;4810259;29;102926;-92
2021/03/22 07:11:20;;;;;;;22.17;5.90;;;;;;;4.45;78.28;99129.84;4810394;29;102734;-92
2021/03/22 07:13:57;;;;;;;17.80;5.40;;;;;;;4.43;78.00;99139.53;4807526;29;104044;-92
2021/03/22 07:16:26;;;;;;;15.93;5.10;;;;;;;4.26;79.32;99140.19;4807635;29;101622;-91
2021/03/22 07:19:07;;;;;;;15.80;5.00;;;;;;;4.45;78.43;99137.69;4807556;29;101814;-92
2021/03/22 07:21:46;;;;;;;19.97;5.20;;;;;;;4.43;78.50;99134.28;4808911;29;102900;-92
2021/03/22 07:24:20;;;;;;;26.00;4.83;;;;;;;4.33;78.31;99135.56;4791567;29;103091;-90
2021/03/22 07:27:13;;;;;;;19.03;4.97;;;;;;;4.30;78.87;99138.28;4793643;29;101710;-92
2021/03/22 07:29:58;;;;;;;23.33;5.83;;;;;;;4.33;78.68;99138.16;4757228;29;102291;-92
2021/03/22 07:32:51;;;;;;;17.93;5.13;;;;;;;4.45;78.29;99135.06;4786091;29;103493;-91
2021/03/22 07:35:42;;;;;;;14.57;4.53;;;;;;;4.53;78.45;99144.31;4796287;29;103237;-91
2021/03/22 07:38:19;;;;;;;19.13;5.00;;;;;;;4.50;78.51;99140.97;4781511;29;102440;-92
2021/03/22 07:40:51;;;;;;;24.37;5.60;;;;;;;4.41;78.10;99146.56;4791210;29;103720;-91
2021/03/22 07:43:39;;;;;;;17.03;5.07;;;;;;;4.41;77.64;99151.78;4790487;29;103002;-91
2021/03/22 07:46:20;;;;;;;17.37;4.77;;;;;;;4.36;78.31;99153.75;4772388;29;105467;-91
2021/03/22 07:49:01;;;;;;;16.80;6.70;;;;;;;4.51;77.71;99151.38;4790264;29;101624;-93
2021/03/22 07:51:45;;;;;;;14.47;5.27;;;;;;;4.56;76.67;99145.94;4792285;29;101624;-91
2021/03/22 07:54:29;;;;;;;18.17;4.60;;;;;;;4.61;76.01;99150.06;4791777;29;102119;-91
2021/03/22 07:57:04;;;;;;;14.83;4.10;;;;;;;4.69;75.70;99152.38;4793770;29;104095;-92
2021/03/22 07:59:43;;;;;;;13.80;6.00;;;;;;;4.53;75.56;99161.75;4791610;29;101664;-92
2021/03/22 08:02:22;;;;;;;10.37;3.90;;;;;;;4.74;75.49;99155.66;4792986;29;101720;-91
2021/03/22 08:04:56;;;;;;;18.90;4.13;;;;;;;4.95;74.63;99152.13;4793232;29;103473;-92
2021/03/22 08:10:50;;;;;;;8.47;4.00;;;;;;;4.65;72.75;99162.13;5177934;27;101754;-85
2021/03/22 08:22:30;;;;;;;9.07;3.00;;;;;;;4.56;73.08;99182.59;5068397;27;103543;-85
2021/03/22 08:34:36;;;;;;;14.77;3.60;;;;;;;4.89;72.43;99196.03;4950382;28;102721;-86
2021/03/22 08:37:20;;;;;;;12.37;5.27;;;;;;;4.89;73.07;99196.91;4949657;28;103423;-84
2021/03/22 08:39:54;;;;;;;11.20;4.07;;;;;;;5.00;72.52;99193.81;4971726;28;102214;-85
2021/03/22 08:42:26;;;;;;;14.73;3.33;;;;;;;4.99;72.23;99202.63;5023314;27;102761;-85
2021/03/22 08:49:49;;;;;;;14.33;2.80;;;;;;;5.48;70.48;99203.97;5110633;27;104216;-85
2021/03/22 08:52:34;;;;;;;9.47;2.47;;;;;;;4.99;71.02;99207.84;5110007;27;102326;-83
2021/03/22 08:56:27;;;;;;;7.57;2.67;;;;;;;5.10;71.41;99209.13;5108077;27;102478;-83
2021/03/22 08:59:20;;;;;;;9.60;3.07;;;;;;;5.19;71.33;99211.31;5148795;27;102665;-85
2021/03/22 09:02:30;;;;;;;7.90;2.47;;;;;;;5.16;70.87;99224.56;5128708;27;102999;-84
2021/03/22 09:05:23;;;;;;;6.83;2.40;;;;;;;5.29;72.16;99217.03;5135273;27;102909;-82
2021/03/22 09:08:14;;;;;;;10.50;3.10;;;;;;;5.05;70.74;99229.38;5122374;27;102998;-82
2021/03/22 09:11:15;;;;;;;15.47;4.97;;;;;;;5.23;72.04;99218.16;5116891;27;103158;-82
2021/03/22 09:13:53;;;;;;;10.33;3.90;;;;;;;5.06;71.58;99227.63;5105785;27;103450;-82
2021/03/22 09:21:20;;;;;;;6.87;2.73;;;;;;;4.93;71.29;99234.28;5131816;27;102293;-82
2021/03/22 09:23:47;;;;;;;10.17;2.53;;;;;;;5.09;71.73;99230.97;5123067;27;102603;-82
2021/03/22 09:26:15;;;;;;;12.37;3.10;;;;;;;5.52;71.33;99231.75;5120884;27;104079;-82
2021/03/22 09:32:42;;;;;;;10.03;2.87;;;;;;;5.33;71.75;99246.59;5055332;27;102855;-81
2021/03/22 09:35:27;;;;;;;10.33;3.27;;;;;;;5.62;70.38;99235.69;5027382;27;104328;-81
2021/03/22 09:37:59;;;;;;;10.73;2.93;;;;;;;5.79;69.88;99233.16;5035406;27;104324;-83
2021/03/22 09:40:50;;;;;;;6.43;2.33;;;;;;;6.27;69.48;99236.22;5034387;27;102905;-84
2021/03/22 09:47:40;;;;;;;6.30;2.17;;;;;;;6.64;68.46;99234.47;5042057;27;104678;-84
2021/03/22 09:50:24;;;;;;;8.67;2.50;;;;;;;6.60;67.10;99243.41;5080169;27;105136;-86
2021/03/22 09:53:21;;;;;;;8.93;2.67;;;;;;;6.22;67.09;99237.34;5091598;27;104436;-87
2021/03/22 09:56:00;;;;;;;7.30;2.33;;;;;;;5.77;68.15;99240.25;5045489;27;103722;-88
2021/03/22 09:58:33;;;;;;;6.50;2.60;;;;;;;5.67;68.19;99238.97;5078108;27;104083;-86
2021/03/22 10:01:03;;;;;;;10.83;2.80;;;;;;;5.91;67.40;99243.16;5095147;27;103583;-87
2021/03/22 10:04:10;;;;;;;10.30;2.70;;;;;;;6.14;67.68;99240.34;5092762;27;102726;-87
2021/03/22 10:07:00;;;;;;;14.47;3.87;;;;;;;5.86;68.90;99241.66;5089820;27;104576;-88
2021/03/22 10:09:36;;;;;;;12.97;2.57;;;;;;;6.01;68.59;99243.56;5095734;27;104357;-87
2021/03/22 10:12:12;;;;;;;10.13;2.37;;;;;;;5.80;68.39;99240.13;5103567;27;103833;-85
2021/03/22 10:14:44;;;;;;;7.80;2.30;;;;;;;5.85;69.35;99240.78;5093047;27;102926;-85
2021/03/22 10:17:26;;;;;;;9.70;3.03;;;;;;;5.60;69.38;99248.88;5096003;27;103260;-84
2021/03/22 10:20:01;;;;;;;9.13;2.63;;;;;;;5.28;71.44;99246.75;5073297;27;104936;-84
2021/03/22 10:22:29;;;;;;;5.70;2.50;;;;;;;5.42;70.63;99248.81;5090372;27;103295;-85
2021/03/22 10:25:10;;;;;;;8.70;2.60;;;;;;;5.63;70.27;99248.72;5093909;27;104555;-84
2021/03/22 10:27:40;;;;;;;8.13;2.40;;;;;;;5.78;70.04;99248.03;5095607;27;103356;-86
2021/03/22 10:30:15;;;;;;;7.77;2.50;;;;;;;5.62;70.60;99247.03;5092735;27;105504;-84
2021/03/22 10:32:48;;;;;;;10.60;2.80;;;;;;;5.77;70.29;99256.84;5104363;27;104315;-83
2021/03/22 10:35:18;;;;;;;9.57;3.33;;;;;;;5.51;71.70;99248.41;5124607;27;103121;-82
2021/03/22 10:37:48;;;;;;;8.80;2.63;;;;;;;5.28;72.13;99261.66;5118197;27;103001;-83
2021/03/22 10:40:27;;;;;;;7.33;2.33;;;;;;;5.46;71.16;99251.22;5113144;27;103693;-84
2021/03/22 10:42:56;;;;;;;12.13;2.77;;;;;;;5.49;72.02;99255.47;5107261;27;104129;-83
2021/03/22 10:49:25;;;;;;;8.57;2.87;;;;;;;5.64;71.45;99244.34;5100069;27;103053;-83
2021/03/22 10:51:56;;;;;;;11.00;3.03;;;;;;;5.82;71.00;99254.88;5111948;27;103228;-83
2021/03/22 10:54:39;;;;;;;8.80;3.07;;;;;;;5.54;72.28;99256.13;5111493;27;103820;-83
2021/03/22 10:57:14;;;;;;;8.93;2.60;;;;;;;5.47;72.28;99262.56;5110989;27;103689;-83
2021/03/22 10:59:43;;;;;;;7.80;2.63;;;;;;;5.87;71.33;99252.06;5112150;27;102965;-84
2021/03/22 11:02:23;;;;;;;8.40;2.63;;;;;;;5.89;70.29;99255.50;5110857;27;105010;-83
2021/03/22 11:04:52;;;;;;;6.57;2.47;;;;;;;6.43;70.69;99250.31;5111599;27;104149;-83
2021/03/22 11:07:22;;;;;;;6.50;2.67;;;;;;;6.27;69.75;99256.34;5111682;27;103214;-86
2021/03/22 11:09:58;;;;;;;10.37;2.60;;;;;;;6.26;69.11;99247.63;5111420;27;103051;-84
2021/03/22 11:12:27;;;;;;;6.43;2.37;;;;;;;6.03;69.48;99258.34;5105787;27;103713;-78
2021/03/22 11:15:01;;;;;;;6.93;2.50;;;;;;;5.93;69.59;99257.03;5103340;27;105499;-78
2021/03/22 11:17:28;;;;;;;10.63;3.70;;;;;;;5.97;69.40;99258.63;5090597;27;102689;-78
2021/03/22 11:19:56;;;;;;;7.03;2.87;;;;;;;6.31;68.67;99256.16;5089895;27;102714;-78
2021/03/22 11:22:27;;;;;;;6.23;2.37;;;;;;;5.81;69.24;99258.41;5094657;27;103907;-78
2021/03/22 11:24:56;;;;;;;8.30;2.63;;;;;;;6.13;69.72;99262.25;5088412;27;104838;-78
2021/03/22 11:27:45;;;;;;;8.77;2.63;;;;;;;6.35;68.79;99255.06;5071326;27;103177;-78
2021/03/22 11:30:14;;;;;;;7.10;2.63;;;;;;;6.51;67.90;99249.13;5089246;27;102739;-79
2021/03/22 11:32:47;;;;;;;8.53;3.03;;;;;;;6.74;67.09;99246.22;5089202;27;104035;-79
2021/03/22 11:35:26;;;;;;;6.97;2.60;;;;;;;7.05;67.02;99237.69;5092853;27;104067;-78
2021/03/22 11:37:57;;;;;;;9.27;2.57;;;;;;;7.51;66.10;99243.22;5109499;27;102599;-79
2021/03/22 11:40:27;;;;;;;7.93;2.20;;;;;;;7.66;65.71;99244.22;5091721;27;103160;-79
2021/03/22 11:43:03;;;;;;;12.03;2.90;;;;;;;7.58;64.68;99236.69;5092770;27;104347;-79
2021/03/22 11:45:37;;;;;;;5.67;2.13;;;;;;;7.64;64.44;99235.53;5083438;27;103680;-79
2021/03/22 11:48:11;;;;;;;9.30;2.40;;;;;;;7.08;64.71;99235.78;5109664;27;102559;-79
2021/03/22 11:50:43;;;;;;;8.27;2.60;;;;;;;7.30;65.29;99231.16;5109521;27;103004;-79
2021/03/22 11:53:21;;;;;;;9.53;2.67;;;;;;;7.46;64.99;99232.09;5108636;27;103528;-78
2021/03/22 11:55:50;;;;;;;6.30;3.00;;;;;;;7.02;64.93;99225.56;5103967;27;104920;-79
2021/03/22 11:58:32;;;;;;;7.63;2.13;;;;;;;7.51;64.66;99240.59;5088531;27;102928;-79
2021/03/22 12:01:24;;;;;;;8.63;2.63;;;;;;;7.33;64.25;99236.25;5088392;27;103417;-85
2021/03/22 12:04:18;;;;;;;6.37;2.20;;;;;;;6.79;64.09;99237.22;5089494;27;103712;-78
2021/03/22 12:07:02;;;;;;;5.47;2.30;;;;;;;7.12;64.29;99232.09;5096142;27;107697;-78
2021/03/22 12:09:31;;;;;;;8.90;2.47;;;;;;;6.70;64.06;99234.19;5099816;27;102665;-79
2021/03/22 12:12:01;;;;;;;7.53;2.50;;;;;;;6.67;65.73;99239.59;5097601;27;103185;-78
2021/03/22 12:14:30;;;;;;;7.90;2.40;;;;;;;6.85;64.81;99234.28;5102757;27;104121;-76
2021/03/22 12:17:04;;;;;;;9.47;2.60;;;;;;;6.64;65.51;99231.84;5102144;27;104161;-80
2021/03/22 12:19:37;;;;;;;4.17;2.17;;;;;;;6.58;66.11;99234.78;5098819;27;103132;-83
2021/03/22 12:22:05;;;;;;;6.03;2.27;;;;;;;6.67;66.73;99229.09;5084668;27;103061;-87
2021/03/22 12:24:37;;;;;;;9.10;2.70;;;;;;;6.60;66.50;99227.66;5100776;27;104440;-85
2021/03/22 12:27:09;;;;;;;4.70;2.30;;;;;;;6.29;67.19;99230.88;5097141;27;106174;-81
2021/03/22 12:29:38;;;;;;;6.47;2.53;;;;;;;6.17;66.64;99240.19;5074992;27;103123;-89
2021/03/22 12:32:06;;;;;;;6.47;2.23;;;;;;;6.28;66.82;99232.69;5086515;27;103185;-82
2021/03/22 12:34:34;;;;;;;4.87;2.40;;;;;;;6.40;66.92;99229.47;5088309;27;103542;-84
2021/03/22 12:37:01;;;;;;;5.27;2.50;;;;;;;6.27;67.33;99225.72;5083335;27;109838;-87
2021/03/22 12:39:33;;;;;;;6.73;2.33;;;;;;;6.43;67.64;99231.94;5087158;27;102539;-88
2021/03/22 12:42:03;;;;;;;6.53;2.30;;;;;;;6.31;68.99;99232.53;5105970;27;102850;-86
2021/03/22 12:44:32;;;;;;;7.43;2.90;;;;;;;6.35;69.45;99234.09;5101718;27;104381;-88
2021/03/22 12:47:00;;;;;;;8.37;3.03;;;;;;;6.56;68.76;99234.00;5096276;27;103142;-87
2021/03/22 12:49:27;;;;;;;8.03;2.97;;;;;;;6.29;68.88;99228.25;5091696;27;102493;-89
2021/03/22 12:51:55;;;;;;;9.53;3.20;;;;;;;6.44;69.15;99232.81;5072983;27;103473;-87
2021/03/22 12:54:22;;;;;;;11.37;3.30;;;;;;;6.21;69.23;99233.03;5104409;27;103119;-88
2021/03/22 12:56:50;;;;;;;5.50;2.60;;;;;;;6.64;68.61;99234.47;5079851;27;105728;-84
2021/03/22 12:59:32;;;;;;;7.40;3.43;;;;;;;6.72;68.07;99234.97;5102487;27;102752;-87
2021/03/22 13:02:02;;;;;;;7.90;3.37;;;;;;;6.85;68.14;99228.19;5065453;27;102900;-86
2021/03/22 13:04:31;;;;;;;9.30;3.53;;;;;;;6.85;67.87;99233.44;5092851;27;104496;-86
2021/03/22 13:06:58;;;;;;;10.53;3.77;;;;;;;6.72;67.97;99237.59;5089973;27;103634;-87
2021/03/22 13:09:26;;;;;;;9.60;3.60;;;;;;;6.95;67.46;99229.44;5092726;27;103577;-90
2021/03/22 13:11:53;;;;;;;5.63;3.40;;;;;;;7.04;66.08;99234.25;5088167;27;103439;-80
2021/03/22 13:14:21;;;;;;;11.70;3.90;;;;;;;7.00;66.31;99232.69;5097315;27;103755;-87
2021/03/22 13:16:49;;;;;;;6.40;2.70;;;;;;;7.19;66.90;99228.22;5102341;27;106458;-85
2021/03/22 13:19:17;;;;;;;5.27;2.90;;;;;;;7.49;66.71;99231.91;5105392;27;103075;-85
2021/03/22 13:21:45;;;;;;;4.57;3.23;;;;;;;7.20;66.00;99229.94;5090041;27;103437;-84
2021/03/22 13:24:20;;;;;;;6.23;3.20;;;;;;;7.33;66.42;99225.75;5094246;27;104562;-87
2021/03/22 13:26:48;;;;;;;7.83;2.97;;;;;;;6.93;66.52;99231.31;5095753;27;103657;-83
2021/03/22 13:29:15;;;;;;;8.13;3.43;;;;;;;6.81;66.29;99226.66;5110145;27;102580;-81
2021/03/22 13:31:43;;;;;;;8.40;3.00;;;;;;;6.69;67.17;99235.09;5099032;27;103535;-80
2021/03/22 13:34:13;;;;;;;7.40;3.60;;;;;;;7.07;66.49;99234.09;5091192;27;102936;-85
2021/03/22 13:36:44;;;;;;;11.20;3.37;;;;;;;7.19;66.65;99228.22;5094896;27;104013;-84
2021/03/22 13:39:13;;;;;;;5.87;3.13;;;;;;;7.46;66.21;99229.47;5092346;27;102899;-85
2021/03/22 13:41:43;;;;;;;5.37;3.03;;;;;;;7.27;66.05;99223.41;5083254;27;102979;-86
2021/03/22 13:44:12;;;;;;;12.43;4.50;;;;;;;6.74;68.12;99235.72;5099690;27;104371;-87
2021/03/22 13:46:42;;;;;;;10.73;3.90;;;;;;;7.15;67.65;99236.34;5103819;27;104456;-88
2021/03/22 13:49:09;;;;;;;8.70;3.90;;;;;;;7.29;66.76;99229.47;5086577;27;102648;-87
2021/03/22 13:51:39;;;;;;;8.10;3.17;;;;;;;7.39;66.19;99233.31;5080377;27;102698;-86
2021/03/22 13:54:14;;;;;;;6.23;2.90;;;;;;;7.15;67.24;99231.94;5098358;27;105559;-84
2021/03/22 13:56:44;;;;;;;7.57;2.93;;;;;;;7.23;66.90;99231.53;5091897;27;103768;-88
2021/03/22 13:59:18;;;;;;;5.63;2.80;;;;;;;7.02;66.72;99230.00;5095288;27;102880;-87
2021/03/22 14:01:45;;;;;;;6.27;3.27;;;;;;;7.20;66.70;99232.56;5074332;27;103016;-86
2021/03/22 14:04:13;;;;;;;7.83;3.17;;;;;;;6.67;67.28;99235.19;5090970;27;103333;-86
2021/03/22 14:06:40;;;;;;;5.13;3.10;;;;;;;6.77;67.60;99233.81;5089356;27;103591;-87
2021/03/22 14:09:09;;;;;;;5.37;3.20;;;;;;;6.85;67.49;99230.81;5072958;27;103086;-89
2021/03/22 14:11:36;;;;;;;6.60;2.73;;;;;;;7.17;67.25;99245.84;5109930;27;102902;-89
2021/03/22 14:14:04;;;;;;;5.17;2.47;;;;;;;7.10;66.97;99244.47;5094134;27;103450;-83
2021/03/22 14:16:31;;;;;;;8.33;3.37;;;;;;;6.99;66.76;99249.38;5107629;27;103725;-90
2021/03/22 14:18:58;;;;;;;6.27;3.30;;;;;;;6.99;67.05;99238.84;5101882;27;103344;-90
2021/03/22 14:21:26;;;;;;;7.63;3.10;;;;;;;6.43;68.34;99239.81;5098243;27;102981;-83
2021/03/22 14:23:53;;;;;;;7.17;3.73;;;;;;;6.53;68.31;99242.03;5098063;27;104757;-88
2021/03/22 14:26:21;;;;;;;7.73;4.00;;;;;;;6.39;69.40;99246.16;5095683;27;104094;-85
2021/03/22 14:28:48;;;;;;;6.80;3.47;;;;;;;6.62;68.74;99245.06;5095473;27;102855;-87
2021/03/22 14:31:19;;;;;;;7.20;3.57;;;;;;;6.85;68.38;99239.53;5099485;27;103223;-80
2021/03/22 14:33:48;;;;;;;9.23;3.83;;;;;;;6.85;68.60;99247.41;5099255;27;103806;-88
2021/03/22 14:36:16;;;;;;;7.17;3.70;;;;;;;6.91;68.66;99251.53;5097705;27;111597;-82
2021/03/22 14:38:43;;;;;;;5.37;3.37;;;;;;;7.00;68.62;99253.72;5076730;27;103225;-81
2021/03/22 14:41:10;;;;;;;6.13;3.50;;;;;;;7.01;68.93;99258.03;5096233;27;103156;-90
2021/03/22 14:43:39;;;;;;;6.93;3.73;;;;;;;6.90;69.18;99252.47;5101419;27;103284;-78
2021/03/22 14:46:07;;;;;;;8.47;4.13;;;;;;;7.03;69.18;99250.94;5106522;27;105718;-80
2021/03/22 14:48:38;;;;;;;6.83;3.80;;;;;;;6.92;68.92;99254.09;5095499;27;103027;-79
2021/03/22 14:51:06;;;;;;;6.53;3.90;;;;;;;6.89;68.98;99250.75;5100862;27;103313;-89
2021/03/22 14:53:35;;;;;;;8.60;3.97;;;;;;;6.92;68.65;99255.88;5104399;27;103701;-79
2021/03/22 14:56:03;;;;;;;8.17;3.37;;;;;;;7.07;68.59;99249.88;5059654;27;105517;-83
2021/03/22 14:58:31;;;;;;;8.10;3.30;;;;;;;6.87;68.39;99252.63;5077732;27;103095;-87
2021/03/22 15:01:01;;;;;;;5.40;3.07;;;;;;;6.92;68.60;99256.72;5093063;27;103319;-87
2021/03/22 15:03:29;;;;;;;8.90;4.00;;;;;;;6.95;68.13;99246.06;5090440;27;103810;-91
2021/03/22 15:05:56;;;;;;;5.03;3.43;;;;;;;6.92;68.21;99253.25;5088287;27;103684;-81
2021/03/22 15:08:23;;;;;;;4.13;2.80;;;;;;;6.86;68.80;99254.38;5095877;27;103180;-81
2021/03/22 15:10:51;;;;;;;6.20;3.40;;;;;;;6.74;68.46;99256.75;5099211;27;102567;-88
2021/03/22 15:13:19;;;;;;;5.87;3.50;;;;;;;6.69;69.21;99259.59;5093949;27;105123;-88
2021/03/22 15:15:48;;;;;;;8.90;5.03;;;;;;;6.67;69.29;99265.84;5091519;27;104275;-88
2021/03/22 15:18:19;;;;;;;8.77;5.27;;;;;;;6.64;69.88;99271.25;5098051;27;102613;-88
2021/03/22 15:20:47;;;;;;;7.07;4.60;;;;;;;6.66;69.07;99264.13;5103713;27;104269;-88
2021/03/22 15:23:16;;;;;;;9.57;4.20;;;;;;;6.30;69.61;99274.59;5103253;27;103826;-89
2021/03/22 15:25:45;;;;;;;8.13;3.30;;;;;;;6.46;69.67;99261.63;5098438;27;103411;-89
2021/03/22 15:28:15;;;;;;;6.93;3.40;;;;;;;6.65;69.51;99267.72;5091771;27;102871;-89
2021/03/22 15:30:43;;;;;;;6.20;3.63;;;;;;;6.74;69.42;99262.00;5092271;27;103197;-89
2021/03/22 15:33:12;;;;;;;8.23;4.00;;;;;;;6.77;69.54;99273.19;5107082;27;105582;-90
2021/03/22 15:35:40;;;;;;;10.93;4.17;;;;;;;6.57;69.98;99267.22;5104437;27;103707;-90
2021/03/22 15:38:07;;;;;;;10.20;4.90;;;;;;;6.62;70.11;99263.44;5104280;27;103023;-91
2021/03/22 15:40:35;;;;;;;8.80;4.00;;;;;;;6.52;70.45;99266.56;5098750;27;104810;-90
2021/03/22 15:43:02;;;;;;;7.53;4.70;;;;;;;6.50;70.63;99273.66;5112842;27;103916;-89
2021/03/22 15:45:31;;;;;;;8.20;5.57;;;;;;;6.53;70.78;99270.91;5104505;27;104695;-89
2021/03/22 15:47:58;;;;;;;16.47;10.00;;;;;;;6.39;71.08;99271.53;5095870;27;102499;-90
2021/03/22 15:50:26;;;;;;;8.83;6.83;;;;;;;6.46;71.16;99277.38;5101101;27;102886;-88
2021/03/22 15:52:54;;;;;;;10.83;5.37;;;;;;;6.58;71.52;99271.53;5104685;27;103499;-89
2021/03/22 15:55:25;;;;;;;6.83;4.57;;;;;;;6.62;71.23;99270.47;5107772;27;103723;-89
2021/03/22 15:57:52;;;;;;;7.00;4.57;;;;;;;6.62;72.06;99268.69;5091467;27;103562;-88
2021/03/22 16:00:22;;;;;;;9.73;5.50;;;;;;;6.51;71.82;99268.34;5103846;27;102725;-88
2021/03/22 16:02:50;;;;;;;9.83;5.30;;;;;;;6.60;71.60;99274.91;5090749;27;104267;-88
2021/03/22 16:05:18;;;;;;;8.33;5.43;;;;;;;6.52;71.96;99279.69;5094460;27;104465;-88
2021/03/22 16:07:46;;;;;;;7.90;5.13;;;;;;;6.51;71.93;99275.38;5091586;27;104809;-87
2021/03/22 16:10:16;;;;;;;7.83;4.80;;;;;;;6.56;72.24;99283.88;5091195;27;102774;-88
2021/03/22 16:12:44;;;;;;;5.73;3.97;;;;;;;6.70;71.56;99278.84;5097641;27;104039;-89
2021/03/22 16:15:14;;;;;;;6.57;4.10;;;;;;;6.79;71.36;99286.28;5101694;27;104261;-89
2021/03/22 16:17:41;;;;;;;8.40;4.50;;;;;;;6.74;71.61;99283.00;5087762;27;103354;-89
2021/03/22 16:20:10;;;;;;;10.80;5.43;;;;;;;6.63;71.43;99283.50;5112784;27;103002;-88
2021/03/22 16:22:38;;;;;;;9.77;5.13;;;;;;;6.67;71.68;99286.84;5108978;27;103855;-89
2021/03/22 16:25:07;;;;;;;11.33;5.23;;;;;;;6.63;71.86;99287.91;5107363;27;104421;-87
2021/03/22 16:27:47;;;;;;;10.07;6.03;;;;;;;6.62;71.57;99291.47;5089698;27;102892;-88
2021/03/22 16:30:16;;;;;;;8.97;5.97;;;;;;;6.70;71.44;99287.56;5103745;27;103125;-88
2021/03/22 16:32:43;;;;;;;8.50;4.80;;;;;;;6.69;71.54;99300.75;5093054;27;103876;-88
2021/03/22 16:35:16;;;;;;;8.23;4.73;;;;;;;6.71;71.03;99294.50;5091415;27;103311;-87
2021/03/22 16:37:46;;;;;;;6.10;3.83;;;;;;;6.70;71.13;99297.22;5093246;27;102968;-88
2021/03/22 16:40:14;;;;;;;6.53;4.53;;;;;;;6.59;70.97;99302.13;5093833;27;102973;-89
2021/03/22 16:42:46;;;;;;;6.70;3.97;;;;;;;6.63;71.04;99301.03;5103326;27;104330;-88
2021/03/22 16:45:15;;;;;;;10.37;4.67;;;;;;;6.47;71.34;99300.91;5103519;27;105385;-88
2021/03/22 16:47:42;;;;;;;8.27;4.57;;;;;;;6.36;72.09;99308.44;5110109;27;103225;-89
2021/03/22 16:50:10;;;;;;;7.47;4.70;;;;;;;6.55;71.49;99304.03;5109214;27;102842;-87
2021/03/22 16:52:37;;;;;;;10.67;5.17;;;;;;;6.53;71.70;99310.28;5105150;27;103917;-89
2021/03/22 16:55:06;;;;;;;7.10;4.67;;;;;;;6.60;71.62;99311.69;5092782;27;103384;-89
2021/03/22 16:57:34;;;;;;;7.37;4.23;;;;;;;6.67;71.64;99310.50;5095460;27;103389;-89
2021/03/22 17:00:06;;;;;;;7.27;4.70;;;;;;;6.71;71.05;99312.88;5093171;27;102973;-89